sensor_id;sensor_type;location;lat;lon;timestamp;temperature;humidity
1283;DHT22;634;48.810;9.148;2022-07-17T00:02:07;18.90;57.60
1283;DHT22;634;48.810;9.148;2022-07-17T00:04:37;19.10;57.50
1283;DHT22;634;48.810;9.148;2022-07-17T00:07:07;19.20;57.20
1283;DHT22;634;48.810;9.148;2022-07-17T00:09:36;19.20;57.00
1283;DHT22;634;48.810;9.148;2022-07-17T00:12:08;19.20;57.10
1283;DHT22;634;48.810;9.148;2022-07-17T00:14:38;19.20;57.00
1283;DHT22;634;48.810;9.148;2022-07-17T00:17:07;19.10;57.20
1283;DHT22;634;48.810;9.148;2022-07-17T00:19:37;19.00;57.40
1283;DHT22;634;48.810;9.148;2022-07-17T00:22:06;19.00;57.70
1283;DHT22;634;48.810;9.148;2022-07-17T00:24:36;18.90;57.60
1283;DHT22;634;48.810;9.148;2022-07-17T00:27:08;18.90;57.70
1283;DHT22;634;48.810;9.148;2022-07-17T00:29:40;19.00;57.40
1283;DHT22;634;48.810;9.148;2022-07-17T00:32:17;19.10;57.20
1283;DHT22;634;48.810;9.148;2022-07-17T00:34:46;19.00;57.40
1283;DHT22;634;48.810;9.148;2022-07-17T00:37:18;18.90;57.80
1283;DHT22;634;48.810;9.148;2022-07-17T00:39:48;18.80;58.00
1283;DHT22;634;48.810;9.148;2022-07-17T00:42:20;18.80;58.00
1283;DHT22;634;48.810;9.148;2022-07-17T00:44:50;18.90;58.00
1283;DHT22;634;48.810;9.148;2022-07-17T00:47:20;18.90;57.90
1283;DHT22;634;48.810;9.148;2022-07-17T00:49:50;18.70;58.10
1283;DHT22;634;48.810;9.148;2022-07-17T00:52:19;18.70;58.40
1283;DHT22;634;48.810;9.148;2022-07-17T00:54:50;18.60;58.70
1283;DHT22;634;48.810;9.148;2022-07-17T00:57:25;18.60;58.90
1283;DHT22;634;48.810;9.148;2022-07-17T00:59:56;18.80;58.50
1283;DHT22;634;48.810;9.148;2022-07-17T01:02:25;18.80;58.20
1283;DHT22;634;48.810;9.148;2022-07-17T01:04:55;18.80;58.40
1283;DHT22;634;48.810;9.148;2022-07-17T01:07:25;18.70;58.60
1283;DHT22;634;48.810;9.148;2022-07-17T01:09:57;18.60;58.90
1283;DHT22;634;48.810;9.148;2022-07-17T01:12:29;18.40;59.10
1283;DHT22;634;48.810;9.148;2022-07-17T01:14:59;18.30;59.60
1283;DHT22;634;48.810;9.148;2022-07-17T01:17:30;18.30;59.80
1283;DHT22;634;48.810;9.148;2022-07-17T01:20:01;18.40;59.80
1283;DHT22;634;48.810;9.148;2022-07-17T01:22:40;18.40;59.60
1283;DHT22;634;48.810;9.148;2022-07-17T01:25:10;18.50;59.20
1283;DHT22;634;48.810;9.148;2022-07-17T01:27:40;18.50;59.10
1283;DHT22;634;48.810;9.148;2022-07-17T01:30:10;18.40;58.90
1283;DHT22;634;48.810;9.148;2022-07-17T01:32:41;18.30;59.20
1283;DHT22;634;48.810;9.148;2022-07-17T01:35:12;18.30;59.10
1283;DHT22;634;48.810;9.148;2022-07-17T01:37:45;18.50;58.60
1283;DHT22;634;48.810;9.148;2022-07-17T01:40:15;18.40;58.80
1283;DHT22;634;48.810;9.148;2022-07-17T01:42:47;18.40;58.80
1283;DHT22;634;48.810;9.148;2022-07-17T01:45:18;18.60;58.70
1283;DHT22;634;48.810;9.148;2022-07-17T01:47:48;18.60;58.30
1283;DHT22;634;48.810;9.148;2022-07-17T01:50:19;18.60;58.40
1283;DHT22;634;48.810;9.148;2022-07-17T01:52:52;18.50;58.20
1283;DHT22;634;48.810;9.148;2022-07-17T01:55:21;18.50;58.70
1283;DHT22;634;48.810;9.148;2022-07-17T01:57:53;18.30;59.00
1283;DHT22;634;48.810;9.148;2022-07-17T02:00:22;18.50;59.20
1283;DHT22;634;48.810;9.148;2022-07-17T02:02:52;18.60;58.80
1283;DHT22;634;48.810;9.148;2022-07-17T02:05:22;18.50;58.80
1283;DHT22;634;48.810;9.148;2022-07-17T02:07:54;18.30;59.50
1283;DHT22;634;48.810;9.148;2022-07-17T02:10:24;18.10;61.10
1283;DHT22;634;48.810;9.148;2022-07-17T02:12:53;18.10;60.70
1283;DHT22;634;48.810;9.148;2022-07-17T02:15:23;18.00;61.10
1283;DHT22;634;48.810;9.148;2022-07-17T02:17:56;17.90;61.90
1283;DHT22;634;48.810;9.148;2022-07-17T02:20:25;17.90;62.30
1283;DHT22;634;48.810;9.148;2022-07-17T02:22:57;17.80;62.30
1283;DHT22;634;48.810;9.148;2022-07-17T02:25:27;17.70;63.40
1283;DHT22;634;48.810;9.148;2022-07-17T02:27:57;17.60;63.90
1283;DHT22;634;48.810;9.148;2022-07-17T02:30:28;17.60;64.10
1283;DHT22;634;48.810;9.148;2022-07-17T02:32:58;17.50;64.70
1283;DHT22;634;48.810;9.148;2022-07-17T02:35:27;17.70;64.70
1283;DHT22;634;48.810;9.148;2022-07-17T02:37:59;17.70;64.70
1283;DHT22;634;48.810;9.148;2022-07-17T02:40:29;17.70;64.70
1283;DHT22;634;48.810;9.148;2022-07-17T02:42:59;17.80;64.60
1283;DHT22;634;48.810;9.148;2022-07-17T02:45:28;17.80;64.80
1283;DHT22;634;48.810;9.148;2022-07-17T02:47:57;17.60;65.40
1283;DHT22;634;48.810;9.148;2022-07-17T02:50:27;17.60;65.70
1283;DHT22;634;48.810;9.148;2022-07-17T02:52:59;17.60;65.40
1283;DHT22;634;48.810;9.148;2022-07-17T02:55:28;17.50;66.30
1283;DHT22;634;48.810;9.148;2022-07-17T02:57:58;17.40;66.60
1283;DHT22;634;48.810;9.148;2022-07-17T03:00:30;17.30;67.20
1283;DHT22;634;48.810;9.148;2022-07-17T03:02:59;17.30;67.30
1283;DHT22;634;48.810;9.148;2022-07-17T03:05:32;17.20;67.60
1283;DHT22;634;48.810;9.148;2022-07-17T03:08:04;17.30;67.50
1283;DHT22;634;48.810;9.148;2022-07-17T03:10:34;17.30;67.40
1283;DHT22;634;48.810;9.148;2022-07-17T03:13:04;17.30;68.00
1283;DHT22;634;48.810;9.148;2022-07-17T03:15:36;17.20;68.20
1283;DHT22;634;48.810;9.148;2022-07-17T03:18:05;17.10;68.00
1283;DHT22;634;48.810;9.148;2022-07-17T03:20:34;17.10;68.30
1283;DHT22;634;48.810;9.148;2022-07-17T03:23:06;17.10;68.80
1283;DHT22;634;48.810;9.148;2022-07-17T03:25:37;16.90;69.20
1283;DHT22;634;48.810;9.148;2022-07-17T03:28:06;16.90;69.80
1283;DHT22;634;48.810;9.148;2022-07-17T03:30:36;16.80;70.10
1283;DHT22;634;48.810;9.148;2022-07-17T03:33:05;16.80;70.00
1283;DHT22;634;48.810;9.148;2022-07-17T03:35:37;17.00;69.50
1283;DHT22;634;48.810;9.148;2022-07-17T03:38:09;16.90;70.10
1283;DHT22;634;48.810;9.148;2022-07-17T03:40:39;16.80;70.40
1283;DHT22;634;48.810;9.148;2022-07-17T03:43:08;16.90;70.20
1283;DHT22;634;48.810;9.148;2022-07-17T03:45:38;17.00;69.90
1283;DHT22;634;48.810;9.148;2022-07-17T03:48:08;17.20;69.60
1283;DHT22;634;48.810;9.148;2022-07-17T03:50:38;17.10;69.40
1283;DHT22;634;48.810;9.148;2022-07-17T03:53:10;17.10;69.30
1283;DHT22;634;48.810;9.148;2022-07-17T03:55:40;17.10;69.20
1283;DHT22;634;48.810;9.148;2022-07-17T03:58:12;17.10;69.70
1283;DHT22;634;48.810;9.148;2022-07-17T04:00:42;16.90;70.30
1283;DHT22;634;48.810;9.148;2022-07-17T04:03:11;17.10;70.20
1283;DHT22;634;48.810;9.148;2022-07-17T04:05:41;17.20;69.10
1283;DHT22;634;48.810;9.148;2022-07-17T04:08:13;17.10;68.80
1283;DHT22;634;48.810;9.148;2022-07-17T04:10:42;17.10;69.50
1283;DHT22;634;48.810;9.148;2022-07-17T04:13:12;17.20;69.10
1283;DHT22;634;48.810;9.148;2022-07-17T04:15:41;17.20;69.10
1283;DHT22;634;48.810;9.148;2022-07-17T04:18:25;17.00;69.20
1283;DHT22;634;48.810;9.148;2022-07-17T04:20:57;17.00;70.10
1283;DHT22;634;48.810;9.148;2022-07-17T04:23:30;17.00;70.50
1283;DHT22;634;48.810;9.148;2022-07-17T04:26:00;17.10;70.20
1283;DHT22;634;48.810;9.148;2022-07-17T04:28:29;17.10;70.40
1283;DHT22;634;48.810;9.148;2022-07-17T04:30:59;17.00;70.70
1283;DHT22;634;48.810;9.148;2022-07-17T04:33:28;17.10;70.90
1283;DHT22;634;48.810;9.148;2022-07-17T04:35:58;17.00;71.80
1283;DHT22;634;48.810;9.148;2022-07-17T04:38:30;16.90;72.60
1283;DHT22;634;48.810;9.148;2022-07-17T04:40:59;17.00;72.90
1283;DHT22;634;48.810;9.148;2022-07-17T04:43:29;17.10;72.40
1283;DHT22;634;48.810;9.148;2022-07-17T04:45:58;17.30;71.90
1283;DHT22;634;48.810;9.148;2022-07-17T04:48:28;17.40;71.60
1283;DHT22;634;48.810;9.148;2022-07-17T04:50:57;17.50;71.30
1283;DHT22;634;48.810;9.148;2022-07-17T04:53:27;17.60;71.10
1283;DHT22;634;48.810;9.148;2022-07-17T04:55:59;17.70;71.10
1283;DHT22;634;48.810;9.148;2022-07-17T04:58:29;17.60;71.30
1283;DHT22;634;48.810;9.148;2022-07-17T05:00:58;17.60;71.80
1283;DHT22;634;48.810;9.148;2022-07-17T05:03:30;17.60;72.30
1283;DHT22;634;48.810;9.148;2022-07-17T05:06:02;17.70;71.90
1283;DHT22;634;48.810;9.148;2022-07-17T05:08:33;17.90;71.40
1283;DHT22;634;48.810;9.148;2022-07-17T05:11:05;18.00;71.20
1283;DHT22;634;48.810;9.148;2022-07-17T05:13:35;18.10;70.80
1283;DHT22;634;48.810;9.148;2022-07-17T05:16:05;18.30;70.00
1283;DHT22;634;48.810;9.148;2022-07-17T05:18:34;18.50;69.00
1283;DHT22;634;48.810;9.148;2022-07-17T05:21:06;18.60;68.00
1283;DHT22;634;48.810;9.148;2022-07-17T05:23:38;18.50;68.60
1283;DHT22;634;48.810;9.148;2022-07-17T05:26:10;18.50;68.70
1283;DHT22;634;48.810;9.148;2022-07-17T05:28:40;18.50;68.20
1283;DHT22;634;48.810;9.148;2022-07-17T05:31:11;18.60;69.10
1283;DHT22;634;48.810;9.148;2022-07-17T05:33:43;18.80;67.10
1283;DHT22;634;48.810;9.148;2022-07-17T05:36:12;19.00;66.50
1283;DHT22;634;48.810;9.148;2022-07-17T05:38:42;19.10;66.30
1283;DHT22;634;48.810;9.148;2022-07-17T05:41:14;19.20;65.40
1283;DHT22;634;48.810;9.148;2022-07-17T05:43:43;19.20;65.50
1283;DHT22;634;48.810;9.148;2022-07-17T05:46:13;19.30;65.50
1283;DHT22;634;48.810;9.148;2022-07-17T05:48:42;19.40;65.20
1283;DHT22;634;48.810;9.148;2022-07-17T05:51:12;19.60;64.80
1283;DHT22;634;48.810;9.148;2022-07-17T05:53:41;19.60;64.30
1283;DHT22;634;48.810;9.148;2022-07-17T05:56:13;19.70;63.60
1283;DHT22;634;48.810;9.148;2022-07-17T05:58:43;19.80;63.70
1283;DHT22;634;48.810;9.148;2022-07-17T06:01:12;20.00;63.00
1283;DHT22;634;48.810;9.148;2022-07-17T06:03:42;20.00;62.10
1283;DHT22;634;48.810;9.148;2022-07-17T06:06:15;20.10;61.50
1283;DHT22;634;48.810;9.148;2022-07-17T06:08:47;20.20;62.00
1283;DHT22;634;48.810;9.148;2022-07-17T06:11:19;20.20;61.60
1283;DHT22;634;48.810;9.148;2022-07-17T06:13:48;20.30;61.40
1283;DHT22;634;48.810;9.148;2022-07-17T06:16:18;20.40;60.50
1283;DHT22;634;48.810;9.148;2022-07-17T06:18:47;20.50;59.70
1283;DHT22;634;48.810;9.148;2022-07-17T06:21:19;20.60;59.70
1283;DHT22;634;48.810;9.148;2022-07-17T06:23:48;20.70;59.70
1283;DHT22;634;48.810;9.148;2022-07-17T06:26:21;20.80;59.20
1283;DHT22;634;48.810;9.148;2022-07-17T06:28:50;21.00;58.60
1283;DHT22;634;48.810;9.148;2022-07-17T06:31:20;21.10;58.10
1283;DHT22;634;48.810;9.148;2022-07-17T06:33:50;21.20;57.80
1283;DHT22;634;48.810;9.148;2022-07-17T06:36:22;21.30;57.70
1283;DHT22;634;48.810;9.148;2022-07-17T06:38:51;21.30;57.10
1283;DHT22;634;48.810;9.148;2022-07-17T06:41:24;21.30;57.40
1283;DHT22;634;48.810;9.148;2022-07-17T06:43:53;21.30;57.00
1283;DHT22;634;48.810;9.148;2022-07-17T06:46:22;21.40;56.80
1283;DHT22;634;48.810;9.148;2022-07-17T06:48:52;21.50;56.80
1283;DHT22;634;48.810;9.148;2022-07-17T06:51:21;21.60;56.20
1283;DHT22;634;48.810;9.148;2022-07-17T06:53:53;21.80;56.10
1283;DHT22;634;48.810;9.148;2022-07-17T06:56:25;21.90;56.10
1283;DHT22;634;48.810;9.148;2022-07-17T06:58:54;22.00;55.80
1283;DHT22;634;48.810;9.148;2022-07-17T07:01:24;22.00;55.10
1283;DHT22;634;48.810;9.148;2022-07-17T07:03:53;22.10;55.10
1283;DHT22;634;48.810;9.148;2022-07-17T07:06:23;22.30;54.60
1283;DHT22;634;48.810;9.148;2022-07-17T07:08:52;22.40;54.20
1283;DHT22;634;48.810;9.148;2022-07-17T07:11:25;22.60;53.70
1283;DHT22;634;48.810;9.148;2022-07-17T07:13:56;22.80;52.90
1283;DHT22;634;48.810;9.148;2022-07-17T07:16:26;22.90;52.20
1283;DHT22;634;48.810;9.148;2022-07-17T07:18:55;22.90;51.90
1283;DHT22;634;48.810;9.148;2022-07-17T07:21:25;22.90;52.10
1283;DHT22;634;48.810;9.148;2022-07-17T07:23:55;23.10;51.50
1283;DHT22;634;48.810;9.148;2022-07-17T07:26:27;23.20;50.70
1283;DHT22;634;48.810;9.148;2022-07-17T07:28:57;23.20;50.20
1283;DHT22;634;48.810;9.148;2022-07-17T07:31:26;23.40;50.10
1283;DHT22;634;48.810;9.148;2022-07-17T07:33:56;23.50;49.40
1283;DHT22;634;48.810;9.148;2022-07-17T07:36:25;23.70;49.10
1283;DHT22;634;48.810;9.148;2022-07-17T07:38:54;24.00;48.80
1283;DHT22;634;48.810;9.148;2022-07-17T07:41:27;24.00;47.80
1283;DHT22;634;48.810;9.148;2022-07-17T07:43:56;24.10;47.80
1283;DHT22;634;48.810;9.148;2022-07-17T07:46:26;24.10;47.00
1283;DHT22;634;48.810;9.148;2022-07-17T07:48:55;24.30;47.20
1283;DHT22;634;48.810;9.148;2022-07-17T07:51:24;24.40;47.00
1283;DHT22;634;48.810;9.148;2022-07-17T07:53:54;24.50;47.10
1283;DHT22;634;48.810;9.148;2022-07-17T07:56:23;24.50;46.90
1283;DHT22;634;48.810;9.148;2022-07-17T07:58:55;24.70;46.80
1283;DHT22;634;48.810;9.148;2022-07-17T08:01:25;24.90;46.40
1283;DHT22;634;48.810;9.148;2022-07-17T08:03:54;25.10;46.00
1283;DHT22;634;48.810;9.148;2022-07-17T08:06:24;25.30;45.90
1283;DHT22;634;48.810;9.148;2022-07-17T08:08:53;25.50;45.70
1283;DHT22;634;48.810;9.148;2022-07-17T08:11:23;25.60;45.10
1283;DHT22;634;48.810;9.148;2022-07-17T08:13:55;25.70;44.80
1283;DHT22;634;48.810;9.148;2022-07-17T08:16:25;25.60;44.60
1283;DHT22;634;48.810;9.148;2022-07-17T08:18:55;25.50;44.70
1283;DHT22;634;48.810;9.148;2022-07-17T08:21:24;25.50;44.40
1283;DHT22;634;48.810;9.148;2022-07-17T08:23:54;25.80;44.10
1283;DHT22;634;48.810;9.148;2022-07-17T08:26:24;26.10;43.50
1283;DHT22;634;48.810;9.148;2022-07-17T08:28:56;26.30;43.00
1283;DHT22;634;48.810;9.148;2022-07-17T08:31:26;26.50;42.10
1283;DHT22;634;48.810;9.148;2022-07-17T08:34:00;26.40;42.20
1283;DHT22;634;48.810;9.148;2022-07-17T08:36:30;26.60;42.50
1283;DHT22;634;48.810;9.148;2022-07-17T08:38:59;26.60;42.20
1283;DHT22;634;48.810;9.148;2022-07-17T08:41:29;26.70;42.50
1283;DHT22;634;48.810;9.148;2022-07-17T08:44:07;26.90;41.70
1283;DHT22;634;48.810;9.148;2022-07-17T08:46:38;26.90;40.50
1283;DHT22;634;48.810;9.148;2022-07-17T08:49:08;27.10;40.90
1283;DHT22;634;48.810;9.148;2022-07-17T08:51:37;27.20;41.00
1283;DHT22;634;48.810;9.148;2022-07-17T08:54:10;27.40;41.70
1283;DHT22;634;48.810;9.148;2022-07-17T08:56:40;27.60;40.80
1283;DHT22;634;48.810;9.148;2022-07-17T08:59:12;27.90;40.40
1283;DHT22;634;48.810;9.148;2022-07-17T09:01:45;28.20;40.00
1283;DHT22;634;48.810;9.148;2022-07-17T09:04:16;28.50;39.40
1283;DHT22;634;48.810;9.148;2022-07-17T09:06:46;28.70;38.60
1283;DHT22;634;48.810;9.148;2022-07-17T09:09:16;28.30;38.70
1283;DHT22;634;48.810;9.148;2022-07-17T09:11:46;28.40;38.00
1283;DHT22;634;48.810;9.148;2022-07-17T09:14:20;28.20;38.60
1283;DHT22;634;48.810;9.148;2022-07-17T09:16:52;28.30;38.70
1283;DHT22;634;48.810;9.148;2022-07-17T09:19:29;28.60;37.80
1283;DHT22;634;48.810;9.148;2022-07-17T09:22:06;28.90;37.80
1283;DHT22;634;48.810;9.148;2022-07-17T09:24:45;29.00;37.10
1283;DHT22;634;48.810;9.148;2022-07-17T09:27:29;29.00;36.80
1283;DHT22;634;48.810;9.148;2022-07-17T09:30:05;29.20;36.80
1283;DHT22;634;48.810;9.148;2022-07-17T09:32:39;29.40;35.90
1283;DHT22;634;48.810;9.148;2022-07-17T09:35:11;29.70;36.10
1283;DHT22;634;48.810;9.148;2022-07-17T09:37:42;29.90;35.70
1283;DHT22;634;48.810;9.148;2022-07-17T09:40:13;30.00;35.30
1283;DHT22;634;48.810;9.148;2022-07-17T09:43:06;30.10;34.60
1283;DHT22;634;48.810;9.148;2022-07-17T09:45:42;30.30;34.70
1283;DHT22;634;48.810;9.148;2022-07-17T09:48:14;30.50;34.50
1283;DHT22;634;48.810;9.148;2022-07-17T09:50:44;30.80;33.30
1283;DHT22;634;48.810;9.148;2022-07-17T09:53:14;31.10;32.80
1283;DHT22;634;48.810;9.148;2022-07-17T09:55:44;31.20;32.00
1283;DHT22;634;48.810;9.148;2022-07-17T09:58:18;31.50;31.70
1283;DHT22;634;48.810;9.148;2022-07-17T10:00:51;31.40;30.60
1283;DHT22;634;48.810;9.148;2022-07-17T10:03:25;31.60;30.40
1283;DHT22;634;48.810;9.148;2022-07-17T10:05:57;31.80;29.90
1283;DHT22;634;48.810;9.148;2022-07-17T10:08:30;31.80;29.90
1283;DHT22;634;48.810;9.148;2022-07-17T10:11:06;32.00;29.80
1283;DHT22;634;48.810;9.148;2022-07-17T10:13:40;32.20;29.10
1283;DHT22;634;48.810;9.148;2022-07-17T10:16:23;32.30;28.80
1283;DHT22;634;48.810;9.148;2022-07-17T10:18:54;32.50;28.60
1283;DHT22;634;48.810;9.148;2022-07-17T10:21:25;32.90;28.90
1283;DHT22;634;48.810;9.148;2022-07-17T10:24:08;33.90;28.30
1283;DHT22;634;48.810;9.148;2022-07-17T10:26:41;34.40;28.50
1283;DHT22;634;48.810;9.148;2022-07-17T10:29:27;35.00;27.50
1283;DHT22;634;48.810;9.148;2022-07-17T10:32:02;35.00;27.20
1283;DHT22;634;48.810;9.148;2022-07-17T10:34:39;34.90;27.60
1283;DHT22;634;48.810;9.148;2022-07-17T10:37:21;34.70;27.60
1283;DHT22;634;48.810;9.148;2022-07-17T10:39:53;34.60;28.10
1283;DHT22;634;48.810;9.148;2022-07-17T10:42:56;34.30;28.40
1283;DHT22;634;48.810;9.148;2022-07-17T10:45:31;34.40;27.90
1283;DHT22;634;48.810;9.148;2022-07-17T10:48:07;34.30;27.50
1283;DHT22;634;48.810;9.148;2022-07-17T10:50:39;34.00;28.20
1283;DHT22;634;48.810;9.148;2022-07-17T10:53:11;34.10;28.10
1283;DHT22;634;48.810;9.148;2022-07-17T10:55:47;34.30;27.90
1283;DHT22;634;48.810;9.148;2022-07-17T10:58:19;34.50;27.80
1283;DHT22;634;48.810;9.148;2022-07-17T11:01:05;33.70;27.90
1283;DHT22;634;48.810;9.148;2022-07-17T11:03:39;33.80;28.10
1283;DHT22;634;48.810;9.148;2022-07-17T11:06:14;34.20;28.10
1283;DHT22;634;48.810;9.148;2022-07-17T11:08:46;34.70;27.60
1283;DHT22;634;48.810;9.148;2022-07-17T11:11:21;35.10;26.30
1283;DHT22;634;48.810;9.148;2022-07-17T11:13:53;35.10;26.60
1283;DHT22;634;48.810;9.148;2022-07-17T11:16:27;35.10;26.40
1283;DHT22;634;48.810;9.148;2022-07-17T11:19:02;34.90;26.50
1283;DHT22;634;48.810;9.148;2022-07-17T11:21:32;35.10;26.00
1283;DHT22;634;48.810;9.148;2022-07-17T11:24:04;35.30;26.20
1283;DHT22;634;48.810;9.148;2022-07-17T11:26:39;35.40;24.90
1283;DHT22;634;48.810;9.148;2022-07-17T11:29:09;35.10;25.50
1283;DHT22;634;48.810;9.148;2022-07-17T11:31:42;35.20;25.70
1283;DHT22;634;48.810;9.148;2022-07-17T11:34:15;35.30;26.20
1283;DHT22;634;48.810;9.148;2022-07-17T11:36:44;35.30;26.10
1283;DHT22;634;48.810;9.148;2022-07-17T11:39:17;35.00;26.60
1283;DHT22;634;48.810;9.148;2022-07-17T11:41:49;35.30;26.10
1283;DHT22;634;48.810;9.148;2022-07-17T11:44:21;35.30;25.40
1283;DHT22;634;48.810;9.148;2022-07-17T11:46:51;35.30;25.70
1283;DHT22;634;48.810;9.148;2022-07-17T11:49:27;35.20;26.00
1283;DHT22;634;48.810;9.148;2022-07-17T11:51:59;35.10;25.60
1283;DHT22;634;48.810;9.148;2022-07-17T11:54:28;34.70;26.00
1283;DHT22;634;48.810;9.148;2022-07-17T11:57:00;34.50;26.00
1283;DHT22;634;48.810;9.148;2022-07-17T11:59:31;34.40;26.60
1283;DHT22;634;48.810;9.148;2022-07-17T12:02:07;34.00;26.30
1283;DHT22;634;48.810;9.148;2022-07-17T12:04:48;34.30;26.70
1283;DHT22;634;48.810;9.148;2022-07-17T12:07:24;34.40;26.40
1283;DHT22;634;48.810;9.148;2022-07-17T12:09:54;34.60;25.50
1283;DHT22;634;48.810;9.148;2022-07-17T12:12:28;34.60;25.40
1283;DHT22;634;48.810;9.148;2022-07-17T12:14:59;34.70;25.30
1283;DHT22;634;48.810;9.148;2022-07-17T12:17:39;35.10;25.40
1283;DHT22;634;48.810;9.148;2022-07-17T12:20:16;35.40;25.10
1283;DHT22;634;48.810;9.148;2022-07-17T12:22:47;35.50;25.90
1283;DHT22;634;48.810;9.148;2022-07-17T12:25:24;35.80;25.70
1283;DHT22;634;48.810;9.148;2022-07-17T12:27:54;35.70;25.40
1283;DHT22;634;48.810;9.148;2022-07-17T12:30:23;36.00;25.00
1283;DHT22;634;48.810;9.148;2022-07-17T12:32:53;36.00;24.00
1283;DHT22;634;48.810;9.148;2022-07-17T12:35:28;35.30;24.60
1283;DHT22;634;48.810;9.148;2022-07-17T12:37:57;35.40;24.80
1283;DHT22;634;48.810;9.148;2022-07-17T12:40:27;35.50;25.30
1283;DHT22;634;48.810;9.148;2022-07-17T12:42:59;35.50;25.30
1283;DHT22;634;48.810;9.148;2022-07-17T12:45:28;35.80;25.10
1283;DHT22;634;48.810;9.148;2022-07-17T12:47:58;35.90;24.70
1283;DHT22;634;48.810;9.148;2022-07-17T12:50:30;35.80;24.10
1283;DHT22;634;48.810;9.148;2022-07-17T12:53:02;36.00;24.40
1283;DHT22;634;48.810;9.148;2022-07-17T12:55:33;36.00;24.60
1283;DHT22;634;48.810;9.148;2022-07-17T12:58:03;36.00;24.50
1283;DHT22;634;48.810;9.148;2022-07-17T13:00:34;36.20;24.40
1283;DHT22;634;48.810;9.148;2022-07-17T13:03:04;36.00;25.00
1283;DHT22;634;48.810;9.148;2022-07-17T13:05:37;35.20;25.40
1283;DHT22;634;48.810;9.148;2022-07-17T13:08:08;34.30;26.00
1283;DHT22;634;48.810;9.148;2022-07-17T13:10:38;34.10;26.70
1283;DHT22;634;48.810;9.148;2022-07-17T13:13:10;33.80;26.20
1283;DHT22;634;48.810;9.148;2022-07-17T13:15:42;33.20;26.60
1283;DHT22;634;48.810;9.148;2022-07-17T13:18:11;32.80;27.20
1283;DHT22;634;48.810;9.148;2022-07-17T13:20:44;32.80;27.10
1283;DHT22;634;48.810;9.148;2022-07-17T13:23:13;32.70;27.10
1283;DHT22;634;48.810;9.148;2022-07-17T13:25:43;32.50;27.40
1283;DHT22;634;48.810;9.148;2022-07-17T13:28:12;32.20;26.70
1283;DHT22;634;48.810;9.148;2022-07-17T13:30:42;32.00;27.20
1283;DHT22;634;48.810;9.148;2022-07-17T13:33:11;31.90;27.10
1283;DHT22;634;48.810;9.148;2022-07-17T13:35:46;31.90;26.40
1283;DHT22;634;48.810;9.148;2022-07-17T13:38:15;31.90;26.00
1283;DHT22;634;48.810;9.148;2022-07-17T13:40:45;31.80;25.90
1283;DHT22;634;48.810;9.148;2022-07-17T13:43:16;31.80;25.80
1283;DHT22;634;48.810;9.148;2022-07-17T13:45:45;31.80;26.00
1283;DHT22;634;48.810;9.148;2022-07-17T13:48:15;31.70;25.40
1283;DHT22;634;48.810;9.148;2022-07-17T13:50:49;31.60;25.00
1283;DHT22;634;48.810;9.148;2022-07-17T13:53:19;31.50;24.80
1283;DHT22;634;48.810;9.148;2022-07-17T13:55:48;31.30;25.60
1283;DHT22;634;48.810;9.148;2022-07-17T13:58:18;31.30;25.90
1283;DHT22;634;48.810;9.148;2022-07-17T14:00:47;31.30;25.90
1283;DHT22;634;48.810;9.148;2022-07-17T14:03:17;31.00;25.90
1283;DHT22;634;48.810;9.148;2022-07-17T14:05:51;31.00;26.10
1283;DHT22;634;48.810;9.148;2022-07-17T14:08:20;31.10;25.70
1283;DHT22;634;48.810;9.148;2022-07-17T14:10:50;31.00;26.30
1283;DHT22;634;48.810;9.148;2022-07-17T14:13:19;31.00;26.50
1283;DHT22;634;48.810;9.148;2022-07-17T14:15:49;31.10;26.10
1283;DHT22;634;48.810;9.148;2022-07-17T14:18:19;31.00;25.90
1283;DHT22;634;48.810;9.148;2022-07-17T14:20:51;31.10;26.00
1283;DHT22;634;48.810;9.148;2022-07-17T14:23:21;31.10;25.60
1283;DHT22;634;48.810;9.148;2022-07-17T14:25:50;31.10;25.50
1283;DHT22;634;48.810;9.148;2022-07-17T14:28:20;30.90;25.00
1283;DHT22;634;48.810;9.148;2022-07-17T14:30:49;31.00;25.30
1283;DHT22;634;48.810;9.148;2022-07-17T14:33:19;31.00;25.30
1283;DHT22;634;48.810;9.148;2022-07-17T14:35:50;31.00;25.90
1283;DHT22;634;48.810;9.148;2022-07-17T14:38:20;31.00;25.80
1283;DHT22;634;48.810;9.148;2022-07-17T14:40:49;30.90;26.00
1283;DHT22;634;48.810;9.148;2022-07-17T14:43:19;30.90;26.20
1283;DHT22;634;48.810;9.148;2022-07-17T14:45:51;31.00;26.30
1283;DHT22;634;48.810;9.148;2022-07-17T14:48:20;31.00;26.30
1283;DHT22;634;48.810;9.148;2022-07-17T14:50:52;30.90;26.10
1283;DHT22;634;48.810;9.148;2022-07-17T14:53:24;30.90;25.70
1283;DHT22;634;48.810;9.148;2022-07-17T14:55:56;30.90;25.30
1283;DHT22;634;48.810;9.148;2022-07-17T14:58:26;30.80;25.30
1283;DHT22;634;48.810;9.148;2022-07-17T15:00:58;30.70;25.80
1283;DHT22;634;48.810;9.148;2022-07-17T15:03:27;30.70;25.80
1283;DHT22;634;48.810;9.148;2022-07-17T15:05:59;30.60;25.90
1283;DHT22;634;48.810;9.148;2022-07-17T15:08:31;30.50;25.90
1283;DHT22;634;48.810;9.148;2022-07-17T15:11:05;30.50;25.90
1283;DHT22;634;48.810;9.148;2022-07-17T15:13:34;30.50;26.20
1283;DHT22;634;48.810;9.148;2022-07-17T15:16:04;30.50;26.20
1283;DHT22;634;48.810;9.148;2022-07-17T15:18:36;30.40;26.90
1283;DHT22;634;48.810;9.148;2022-07-17T15:21:08;30.40;27.20
1283;DHT22;634;48.810;9.148;2022-07-17T15:23:37;30.50;26.80
1283;DHT22;634;48.810;9.148;2022-07-17T15:26:10;30.50;26.90
1283;DHT22;634;48.810;9.148;2022-07-17T15:28:40;30.50;26.80
1283;DHT22;634;48.810;9.148;2022-07-17T15:31:12;30.50;26.90
1283;DHT22;634;48.810;9.148;2022-07-17T15:33:42;30.50;27.10
1283;DHT22;634;48.810;9.148;2022-07-17T15:36:14;30.60;27.40
1283;DHT22;634;48.810;9.148;2022-07-17T15:38:53;30.70;27.10
1283;DHT22;634;48.810;9.148;2022-07-17T15:41:24;30.70;26.90
1283;DHT22;634;48.810;9.148;2022-07-17T15:43:53;30.70;27.10
1283;DHT22;634;48.810;9.148;2022-07-17T15:46:28;30.70;27.30
1283;DHT22;634;48.810;9.148;2022-07-17T15:48:58;30.60;27.30
1283;DHT22;634;48.810;9.148;2022-07-17T15:51:31;30.60;27.50
1283;DHT22;634;48.810;9.148;2022-07-17T15:54:00;30.60;27.50
1283;DHT22;634;48.810;9.148;2022-07-17T15:56:30;30.60;27.60
1283;DHT22;634;48.810;9.148;2022-07-17T15:59:00;30.50;27.50
1283;DHT22;634;48.810;9.148;2022-07-17T16:01:30;30.50;27.60
1283;DHT22;634;48.810;9.148;2022-07-17T16:03:59;30.30;27.70
1283;DHT22;634;48.810;9.148;2022-07-17T16:06:31;30.30;27.80
1283;DHT22;634;48.810;9.148;2022-07-17T16:09:01;30.30;28.00
1283;DHT22;634;48.810;9.148;2022-07-17T16:11:34;30.20;28.10
1283;DHT22;634;48.810;9.148;2022-07-17T16:14:04;30.30;28.40
1283;DHT22;634;48.810;9.148;2022-07-17T16:16:33;30.40;28.40
1283;DHT22;634;48.810;9.148;2022-07-17T16:19:03;30.40;28.20
1283;DHT22;634;48.810;9.148;2022-07-17T16:21:35;30.40;27.90
1283;DHT22;634;48.810;9.148;2022-07-17T16:24:05;30.30;28.10
1283;DHT22;634;48.810;9.148;2022-07-17T16:26:35;30.30;28.40
1283;DHT22;634;48.810;9.148;2022-07-17T16:29:04;30.30;27.90
1283;DHT22;634;48.810;9.148;2022-07-17T16:31:36;30.40;28.20
1283;DHT22;634;48.810;9.148;2022-07-17T16:34:08;30.30;28.20
1283;DHT22;634;48.810;9.148;2022-07-17T16:36:42;30.30;28.40
1283;DHT22;634;48.810;9.148;2022-07-17T16:39:15;30.40;28.80
1283;DHT22;634;48.810;9.148;2022-07-17T16:41:44;30.30;28.60
1283;DHT22;634;48.810;9.148;2022-07-17T16:44:14;30.30;28.60